sensor_id;sensor_type;location;lat;lon;timestamp;pressure;altitude;pressure_sealevel;temperature;humidity
9774;BME280;4926;42.670;23.316;2023-07-13T00:01:06;94749.50;;;25.98;55.18
9774;BME280;4926;42.670;23.316;2023-07-13T00:03:35;94756.09;;;25.93;55.39
9774;BME280;4926;42.670;23.316;2023-07-13T00:06:02;94752.13;;;25.84;55.23
9774;BME280;4926;42.670;23.316;2023-07-13T00:08:30;94748.59;;;25.80;55.27
9774;BME280;4926;42.670;23.316;2023-07-13T00:10:58;94752.84;;;25.77;55.14
9774;BME280;4926;42.670;23.316;2023-07-13T00:13:25;94749.72;;;25.72;55.20
9774;BME280;4926;42.670;23.316;2023-07-13T00:15:51;94748.94;;;25.75;55.05
9774;BME280;4926;42.670;23.316;2023-07-13T00:18:20;94746.28;;;25.82;54.89
9774;BME280;4926;42.670;23.316;2023-07-13T00:20:47;94748.59;;;25.80;54.99
9774;BME280;4926;42.670;23.316;2023-07-13T00:23:14;94745.09;;;25.83;55.10
9774;BME280;4926;42.670;23.316;2023-07-13T00:25:42;94745.47;;;25.81;55.35
9774;BME280;4926;42.670;23.316;2023-07-13T00:28:09;94740.03;;;25.81;55.81
9774;BME280;4926;42.670;23.316;2023-07-13T00:30:35;94745.03;;;25.76;56.74
9774;BME280;4926;42.670;23.316;2023-07-13T00:33:05;94739.78;;;25.53;58.37
9774;BME280;4926;42.670;23.316;2023-07-13T00:35:34;94741.50;;;25.31;59.96
9774;BME280;4926;42.670;23.316;2023-07-13T00:38:00;94744.19;;;25.28;60.55
9774;BME280;4926;42.670;23.316;2023-07-13T00:40:28;94747.22;;;25.19;60.98
9774;BME280;4926;42.670;23.316;2023-07-13T00:42:57;94751.53;;;25.20;61.25
9774;BME280;4926;42.670;23.316;2023-07-13T00:48:37;94755.09;;;24.91;63.83
9774;BME280;4926;42.670;23.316;2023-07-13T00:51:06;94766.81;;;24.95;64.45
9774;BME280;4926;42.670;23.316;2023-07-13T00:53:34;94752.53;;;24.72;64.85
9774;BME280;4926;42.670;23.316;2023-07-13T00:56:02;94750.56;;;24.40;65.16
9774;BME280;4926;42.670;23.316;2023-07-13T00:58:31;94757.34;;;24.26;65.54
9774;BME280;4926;42.670;23.316;2023-07-13T01:00:58;94759.53;;;24.14;66.21
9774;BME280;4926;42.670;23.316;2023-07-13T01:03:25;94753.88;;;24.00;67.08
9774;BME280;4926;42.670;23.316;2023-07-13T01:05:52;94761.31;;;24.03;67.37
9774;BME280;4926;42.670;23.316;2023-07-13T01:08:23;94757.78;;;24.02;67.64
9774;BME280;4926;42.670;23.316;2023-07-13T01:10:54;94763.41;;;24.13;67.94
9774;BME280;4926;42.670;23.316;2023-07-13T01:13:22;94749.50;;;24.21;67.87
9774;BME280;4926;42.670;23.316;2023-07-13T01:15:51;94755.81;;;24.25;68.29
9774;BME280;4926;42.670;23.316;2023-07-13T01:18:25;94757.06;;;24.32;68.50
9774;BME280;4926;42.670;23.316;2023-07-13T01:20:55;94756.78;;;24.40;68.46
9774;BME280;4926;42.670;23.316;2023-07-13T01:23:23;94751.75;;;24.42;68.49
9774;BME280;4926;42.670;23.316;2023-07-13T01:25:53;94743.28;;;24.47;68.29
9774;BME280;4926;42.670;23.316;2023-07-13T01:28:21;94747.97;;;24.50;68.22
9774;BME280;4926;42.670;23.316;2023-07-13T01:30:48;94748.38;;;24.52;67.86
9774;BME280;4926;42.670;23.316;2023-07-13T01:33:19;94752.25;;;24.51;67.85
9774;BME280;4926;42.670;23.316;2023-07-13T01:35:46;94748.34;;;24.49;67.76
9774;BME280;4926;42.670;23.316;2023-07-13T01:38:16;94762.75;;;24.49;67.85
9774;BME280;4926;42.670;23.316;2023-07-13T01:40:43;94756.97;;;24.54;67.58
9774;BME280;4926;42.670;23.316;2023-07-13T01:43:12;94749.19;;;24.53;67.50
9774;BME280;4926;42.670;23.316;2023-07-13T01:45:48;94745.25;;;24.50;67.67
9774;BME280;4926;42.670;23.316;2023-07-13T01:48:17;94746.53;;;24.30;68.93
9774;BME280;4926;42.670;23.316;2023-07-13T01:50:47;94751.78;;;24.16;69.72
9774;BME280;4926;42.670;23.316;2023-07-13T01:53:16;94756.94;;;23.98;70.80
9774;BME280;4926;42.670;23.316;2023-07-13T01:55:43;94749.03;;;23.90;71.25
9774;BME280;4926;42.670;23.316;2023-07-13T01:58:10;94744.63;;;23.82;71.35
9774;BME280;4926;42.670;23.316;2023-07-13T02:00:36;94758.81;;;23.68;72.64
9774;BME280;4926;42.670;23.316;2023-07-13T02:03:03;94763.31;;;23.61;72.06
9774;BME280;4926;42.670;23.316;2023-07-13T02:05:30;94761.66;;;23.53;72.23
9774;BME280;4926;42.670;23.316;2023-07-13T02:07:57;94764.75;;;23.51;72.77
9774;BME280;4926;42.670;23.316;2023-07-13T02:10:25;94766.97;;;23.46;72.97
9774;BME280;4926;42.670;23.316;2023-07-13T02:12:53;94770.69;;;23.38;73.09
9774;BME280;4926;42.670;23.316;2023-07-13T02:15:20;94767.56;;;23.36;73.31
9774;BME280;4926;42.670;23.316;2023-07-13T02:17:47;94773.47;;;23.41;73.48
9774;BME280;4926;42.670;23.316;2023-07-13T02:20:13;94767.50;;;23.32;74.29
9774;BME280;4926;42.670;23.316;2023-07-13T02:22:42;94774.25;;;23.42;72.81
9774;BME280;4926;42.670;23.316;2023-07-13T02:25:14;94768.72;;;23.35;72.72
9774;BME280;4926;42.670;23.316;2023-07-13T02:27:42;94780.81;;;23.37;73.54
9774;BME280;4926;42.670;23.316;2023-07-13T02:30:10;94781.25;;;23.43;73.60
9774;BME280;4926;42.670;23.316;2023-07-13T02:32:37;94778.53;;;23.43;73.91
9774;BME280;4926;42.670;23.316;2023-07-13T02:35:06;94772.41;;;23.46;73.87
9774;BME280;4926;42.670;23.316;2023-07-13T02:37:36;94775.69;;;23.55;73.67
9774;BME280;4926;42.670;23.316;2023-07-13T02:40:03;94782.47;;;23.68;73.83
9774;BME280;4926;42.670;23.316;2023-07-13T02:42:33;94776.72;;;23.73;73.62
9774;BME280;4926;42.670;23.316;2023-07-13T02:45:03;94776.78;;;23.76;73.77
9774;BME280;4926;42.670;23.316;2023-07-13T02:47:32;94783.28;;;23.68;74.11
9774;BME280;4926;42.670;23.316;2023-07-13T02:49:59;94772.09;;;23.51;75.31
9774;BME280;4926;42.670;23.316;2023-07-13T02:52:26;94776.06;;;23.57;75.23
9774;BME280;4926;42.670;23.316;2023-07-13T02:54:53;94783.56;;;23.63;75.22
9774;BME280;4926;42.670;23.316;2023-07-13T02:57:24;94783.75;;;23.74;74.73
9774;BME280;4926;42.670;23.316;2023-07-13T02:59:52;94783.69;;;23.70;74.61
9774;BME280;4926;42.670;23.316;2023-07-13T03:02:20;94782.97;;;23.73;74.27
9774;BME280;4926;42.670;23.316;2023-07-13T03:04:47;94782.28;;;23.80;74.06
9774;BME280;4926;42.670;23.316;2023-07-13T03:07:15;94791.47;;;23.94;73.90
9774;BME280;4926;42.670;23.316;2023-07-13T03:09:41;94791.41;;;23.91;74.13
9774;BME280;4926;42.670;23.316;2023-07-13T03:12:08;94799.13;;;23.89;75.08
9774;BME280;4926;42.670;23.316;2023-07-13T03:14:35;94796.00;;;23.87;75.57
9774;BME280;4926;42.670;23.316;2023-07-13T03:17:02;94790.31;;;23.73;76.29
9774;BME280;4926;42.670;23.316;2023-07-13T03:19:32;94791.91;;;23.74;77.16
9774;BME280;4926;42.670;23.316;2023-07-13T03:21:59;94797.41;;;23.55;78.57
9774;BME280;4926;42.670;23.316;2023-07-13T03:24:25;94797.16;;;23.41;80.23
9774;BME280;4926;42.670;23.316;2023-07-13T03:26:52;94804.34;;;23.30;81.79
9774;BME280;4926;42.670;23.316;2023-07-13T03:29:23;94800.53;;;23.34;82.30
9774;BME280;4926;42.670;23.316;2023-07-13T03:31:50;94808.88;;;23.25;83.67
9774;BME280;4926;42.670;23.316;2023-07-13T03:34:19;94808.97;;;23.29;84.06
9774;BME280;4926;42.670;23.316;2023-07-13T03:36:47;94812.19;;;23.35;84.23
9774;BME280;4926;42.670;23.316;2023-07-13T03:39:16;94806.50;;;23.43;83.81
9774;BME280;4926;42.670;23.316;2023-07-13T03:41:42;94816.19;;;23.41;82.23
9774;BME280;4926;42.670;23.316;2023-07-13T03:44:15;94808.75;;;23.38;81.14
9774;BME280;4926;42.670;23.316;2023-07-13T03:46:42;94811.16;;;23.43;80.51
9774;BME280;4926;42.670;23.316;2023-07-13T03:49:09;94809.00;;;23.52;80.00
9774;BME280;4926;42.670;23.316;2023-07-13T03:51:36;94805.72;;;23.43;79.43
9774;BME280;4926;42.670;23.316;2023-07-13T03:54:04;94802.13;;;23.58;79.27
9774;BME280;4926;42.670;23.316;2023-07-13T03:56:31;94800.84;;;23.74;77.74
9774;BME280;4926;42.670;23.316;2023-07-13T03:58:59;94800.31;;;23.88;77.91
9774;BME280;4926;42.670;23.316;2023-07-13T04:01:28;94801.97;;;23.96;79.04
9774;BME280;4926;42.670;23.316;2023-07-13T04:03:56;94806.09;;;24.09;77.09
9774;BME280;4926;42.670;23.316;2023-07-13T04:06:30;94801.06;;;24.11;77.07
9774;BME280;4926;42.670;23.316;2023-07-13T04:08:59;94798.44;;;24.18;76.71
9774;BME280;4926;42.670;23.316;2023-07-13T04:11:29;94801.59;;;24.20;76.49
9774;BME280;4926;42.670;23.316;2023-07-13T04:14:00;94797.84;;;24.28;76.54
9774;BME280;4926;42.670;23.316;2023-07-13T04:16:27;94794.41;;;24.35;76.37
9774;BME280;4926;42.670;23.316;2023-07-13T04:18:56;94799.06;;;24.34;76.37
9774;BME280;4926;42.670;23.316;2023-07-13T04:21:26;94795.50;;;24.30;76.81
9774;BME280;4926;42.670;23.316;2023-07-13T04:23:53;94811.59;;;24.39;76.58
9774;BME280;4926;42.670;23.316;2023-07-13T04:26:20;94812.88;;;24.48;76.51
9774;BME280;4926;42.670;23.316;2023-07-13T04:28:49;94812.56;;;24.53;76.00
9774;BME280;4926;42.670;23.316;2023-07-13T04:31:16;94820.63;;;24.46;76.62
9774;BME280;4926;42.670;23.316;2023-07-13T04:33:43;94819.16;;;24.52;77.76
9774;BME280;4926;42.670;23.316;2023-07-13T04:36:10;94806.59;;;24.44;77.52
9774;BME280;4926;42.670;23.316;2023-07-13T04:38:37;94813.56;;;24.42;77.13
9774;BME280;4926;42.670;23.316;2023-07-13T04:41:05;94818.97;;;24.38;77.06
9774;BME280;4926;42.670;23.316;2023-07-13T04:43:32;94829.75;;;24.31;76.89
9774;BME280;4926;42.670;23.316;2023-07-13T04:46:05;94828.69;;;24.13;78.06
9774;BME280;4926;42.670;23.316;2023-07-13T04:48:32;94820.84;;;24.08;78.62
9774;BME280;4926;42.670;23.316;2023-07-13T04:51:00;94821.91;;;24.26;79.49
9774;BME280;4926;42.670;23.316;2023-07-13T04:53:30;94831.34;;;24.36;77.99
9774;BME280;4926;42.670;23.316;2023-07-13T04:55:59;94841.69;;;24.49;76.48
9774;BME280;4926;42.670;23.316;2023-07-13T04:58:26;94848.78;;;24.57;76.42
9774;BME280;4926;42.670;23.316;2023-07-13T05:00:53;94835.78;;;24.17;77.68
9774;BME280;4926;42.670;23.316;2023-07-13T05:03:26;94844.75;;;24.21;78.05
9774;BME280;4926;42.670;23.316;2023-07-13T05:06:03;94839.44;;;24.06;78.55
9774;BME280;4926;42.670;23.316;2023-07-13T05:08:30;94836.53;;;24.18;78.06
9774;BME280;4926;42.670;23.316;2023-07-13T05:10:59;94844.38;;;24.23;77.33
9774;BME280;4926;42.670;23.316;2023-07-13T05:13:30;94849.13;;;24.26;77.55
9774;BME280;4926;42.670;23.316;2023-07-13T05:15:58;94845.50;;;24.45;76.68
9774;BME280;4926;42.670;23.316;2023-07-13T05:18:33;94848.88;;;24.64;75.76
9774;BME280;4926;42.670;23.316;2023-07-13T05:21:01;94849.53;;;24.54;75.72
9774;BME280;4926;42.670;23.316;2023-07-13T05:23:29;94851.25;;;24.40;76.05
9774;BME280;4926;42.670;23.316;2023-07-13T05:25:56;94850.25;;;24.51;75.87
9774;BME280;4926;42.670;23.316;2023-07-13T05:28:27;94845.75;;;24.62;75.04
9774;BME280;4926;42.670;23.316;2023-07-13T05:30:54;94845.97;;;24.76;74.55
9774;BME280;4926;42.670;23.316;2023-07-13T05:33:26;94853.16;;;24.91;74.41
9774;BME280;4926;42.670;23.316;2023-07-13T05:35:54;94850.75;;;24.86;73.58
9774;BME280;4926;42.670;23.316;2023-07-13T05:38:21;94866.38;;;24.89;73.85
9774;BME280;4926;42.670;23.316;2023-07-13T05:40:53;94850.22;;;25.03;73.94
9774;BME280;4926;42.670;23.316;2023-07-13T05:43:23;94856.66;;;25.21;73.82
9774;BME280;4926;42.670;23.316;2023-07-13T05:45:52;94854.53;;;25.38;72.92
9774;BME280;4926;42.670;23.316;2023-07-13T05:48:21;94857.00;;;25.50;72.30
9774;BME280;4926;42.670;23.316;2023-07-13T05:50:48;94850.13;;;25.63;71.37
9774;BME280;4926;42.670;23.316;2023-07-13T05:53:17;94852.56;;;25.71;70.97
9774;BME280;4926;42.670;23.316;2023-07-13T05:55:55;94856.94;;;25.83;69.84
9774;BME280;4926;42.670;23.316;2023-07-13T05:58:22;94845.47;;;26.03;68.35
9774;BME280;4926;42.670;23.316;2023-07-13T06:00:48;94841.66;;;26.15;67.75
9774;BME280;4926;42.670;23.316;2023-07-13T06:03:24;94833.91;;;26.17;68.10
9774;BME280;4926;42.670;23.316;2023-07-13T06:05:53;94823.38;;;26.19;67.32
9774;BME280;4926;42.670;23.316;2023-07-13T06:08:23;94837.78;;;26.16;69.32
9774;BME280;4926;42.670;23.316;2023-07-13T06:10:50;94827.22;;;26.11;69.19
9774;BME280;4926;42.670;23.316;2023-07-13T06:13:19;94828.72;;;26.05;66.81
9774;BME280;4926;42.670;23.316;2023-07-13T06:15:48;94844.72;;;26.06;68.04
9774;BME280;4926;42.670;23.316;2023-07-13T06:18:15;94845.59;;;26.21;67.72
9774;BME280;4926;42.670;23.316;2023-07-13T06:20:41;94832.81;;;26.32;66.38
9774;BME280;4926;42.670;23.316;2023-07-13T06:23:11;94839.94;;;26.47;65.83
9774;BME280;4926;42.670;23.316;2023-07-13T06:25:39;94845.47;;;26.58;64.69
9774;BME280;4926;42.670;23.316;2023-07-13T06:28:06;94840.94;;;26.76;64.79
9774;BME280;4926;42.670;23.316;2023-07-13T06:30:36;94846.50;;;26.93;64.58
9774;BME280;4926;42.670;23.316;2023-07-13T06:33:07;94840.31;;;27.10;64.22
9774;BME280;4926;42.670;23.316;2023-07-13T06:35:33;94832.53;;;27.19;62.84
9774;BME280;4926;42.670;23.316;2023-07-13T06:38:00;94837.69;;;27.31;62.81
9774;BME280;4926;42.670;23.316;2023-07-13T06:40:27;94818.59;;;27.52;62.34
9774;BME280;4926;42.670;23.316;2023-07-13T06:42:59;94815.13;;;27.70;61.62
9774;BME280;4926;42.670;23.316;2023-07-13T06:45:26;94826.88;;;27.81;61.20
9774;BME280;4926;42.670;23.316;2023-07-13T06:47:53;94821.41;;;27.81;60.74
9774;BME280;4926;42.670;23.316;2023-07-13T06:50:19;94821.03;;;28.10;59.75
9774;BME280;4926;42.670;23.316;2023-07-13T06:52:48;94806.19;;;28.29;58.70
9774;BME280;4926;42.670;23.316;2023-07-13T06:55:15;94812.44;;;28.33;57.74
9774;BME280;4926;42.670;23.316;2023-07-13T06:57:42;94810.06;;;28.35;56.96
9774;BME280;4926;42.670;23.316;2023-07-13T07:00:12;94810.84;;;28.67;56.25
9774;BME280;4926;42.670;23.316;2023-07-13T07:02:38;94804.13;;;28.89;55.22
9774;BME280;4926;42.670;23.316;2023-07-13T07:05:06;94810.75;;;29.02;55.65
9774;BME280;4926;42.670;23.316;2023-07-13T07:07:34;94811.50;;;29.13;54.65
9774;BME280;4926;42.670;23.316;2023-07-13T07:10:00;94809.09;;;29.22;54.90
9774;BME280;4926;42.670;23.316;2023-07-13T07:12:28;94798.19;;;29.12;54.07
9774;BME280;4926;42.670;23.316;2023-07-13T07:14:55;94802.47;;;29.09;54.33
9774;BME280;4926;42.670;23.316;2023-07-13T07:17:23;94805.91;;;29.34;54.38
9774;BME280;4926;42.670;23.316;2023-07-13T07:19:51;94800.31;;;29.55;53.36
9774;BME280;4926;42.670;23.316;2023-07-13T07:22:19;94796.19;;;29.85;51.96
9774;BME280;4926;42.670;23.316;2023-07-13T07:24:46;94779.16;;;30.11;52.09
9774;BME280;4926;42.670;23.316;2023-07-13T07:27:13;94792.09;;;30.58;51.49
9774;BME280;4926;42.670;23.316;2023-07-13T07:29:40;94789.13;;;30.79;50.03
9774;BME280;4926;42.670;23.316;2023-07-13T07:32:07;94784.91;;;30.67;49.55
9774;BME280;4926;42.670;23.316;2023-07-13T07:34:35;94764.09;;;30.66;48.89
9774;BME280;4926;42.670;23.316;2023-07-13T07:37:02;94772.66;;;30.76;49.23
9774;BME280;4926;42.670;23.316;2023-07-13T07:39:31;94766.88;;;31.00;48.76
9774;BME280;4926;42.670;23.316;2023-07-13T07:41:59;94759.41;;;31.01;46.97
9774;BME280;4926;42.670;23.316;2023-07-13T07:44:28;94748.28;;;30.74;46.96
9774;BME280;4926;42.670;23.316;2023-07-13T07:46:55;94757.69;;;30.77;47.16
9774;BME280;4926;42.670;23.316;2023-07-13T07:49:21;94756.13;;;30.79;48.12
9774;BME280;4926;42.670;23.316;2023-07-13T07:51:49;94758.34;;;30.91;48.60
9774;BME280;4926;42.670;23.316;2023-07-13T07:54:16;94754.53;;;30.78;47.83
9774;BME280;4926;42.670;23.316;2023-07-13T07:56:43;94751.28;;;30.90;47.68
9774;BME280;4926;42.670;23.316;2023-07-13T07:59:11;94754.69;;;31.01;46.81
9774;BME280;4926;42.670;23.316;2023-07-13T08:01:37;94740.94;;;31.01;47.05
9774;BME280;4926;42.670;23.316;2023-07-13T08:04:04;94733.09;;;31.00;46.85
9774;BME280;4926;42.670;23.316;2023-07-13T08:06:31;94743.09;;;31.17;47.91
9774;BME280;4926;42.670;23.316;2023-07-13T08:09:02;94727.69;;;31.23;46.84
9774;BME280;4926;42.670;23.316;2023-07-13T08:11:29;94727.97;;;31.28;46.83
9774;BME280;4926;42.670;23.316;2023-07-13T08:13:56;94732.63;;;31.38;47.84
9774;BME280;4926;42.670;23.316;2023-07-13T08:16:23;94724.38;;;31.61;46.77
9774;BME280;4926;42.670;23.316;2023-07-13T08:18:50;94718.53;;;31.83;47.06
9774;BME280;4926;42.670;23.316;2023-07-13T08:21:16;94713.31;;;32.15;46.30
9774;BME280;4926;42.670;23.316;2023-07-13T08:23:48;94706.63;;;32.35;45.36
9774;BME280;4926;42.670;23.316;2023-07-13T08:26:16;94708.13;;;32.40;45.13
9774;BME280;4926;42.670;23.316;2023-07-13T08:28:42;94700.00;;;32.33;45.28
9774;BME280;4926;42.670;23.316;2023-07-13T08:31:10;94705.28;;;32.47;46.11
9774;BME280;4926;42.670;23.316;2023-07-13T08:33:37;94697.94;;;32.37;44.79
9774;BME280;4926;42.670;23.316;2023-07-13T08:36:04;94702.41;;;32.31;45.28
9774;BME280;4926;42.670;23.316;2023-07-13T08:38:31;94690.28;;;32.25;43.90
9774;BME280;4926;42.670;23.316;2023-07-13T08:41:04;94684.91;;;32.41;44.96
9774;BME280;4926;42.670;23.316;2023-07-13T08:43:37;94679.19;;;32.71;43.64
9774;BME280;4926;42.670;23.316;2023-07-13T08:46:08;94680.94;;;33.20;43.38
9774;BME280;4926;42.670;23.316;2023-07-13T08:48:40;94678.19;;;33.36;43.52
9774;BME280;4926;42.670;23.316;2023-07-13T08:51:33;94678.22;;;33.52;43.21
9774;BME280;4926;42.670;23.316;2023-07-13T08:54:05;94665.56;;;34.03;42.01
9774;BME280;4926;42.670;23.316;2023-07-13T08:56:35;94667.28;;;34.13;41.59
9774;BME280;4926;42.670;23.316;2023-07-13T08:59:09;94674.41;;;34.43;41.21
9774;BME280;4926;42.670;23.316;2023-07-13T09:01:54;94675.75;;;34.51;41.50
9774;BME280;4926;42.670;23.316;2023-07-13T09:04:28;94685.84;;;34.86;40.44
9774;BME280;4926;42.670;23.316;2023-07-13T09:09:55;94698.13;;;34.56;41.12
9774;BME280;4926;42.670;23.316;2023-07-13T09:12:35;94701.47;;;34.03;40.07
9774;BME280;4926;42.670;23.316;2023-07-13T09:15:20;94691.81;;;34.40;40.06
9774;BME280;4926;42.670;23.316;2023-07-13T09:17:49;94692.44;;;35.17;39.13
9774;BME280;4926;42.670;23.316;2023-07-13T09:20:22;94673.13;;;35.55;37.77
9774;BME280;4926;42.670;23.316;2023-07-13T09:22:52;94672.78;;;35.65;37.92
9774;BME280;4926;42.670;23.316;2023-07-13T09:25:24;94681.97;;;35.62;38.90
9774;BME280;4926;42.670;23.316;2023-07-13T09:27:56;94684.72;;;35.62;38.87
9774;BME280;4926;42.670;23.316;2023-07-13T09:30:32;94676.97;;;35.82;38.46
9774;BME280;4926;42.670;23.316;2023-07-13T09:33:00;94681.50;;;36.02;38.45
9774;BME280;4926;42.670;23.316;2023-07-13T09:35:28;94673.75;;;35.84;39.47
9774;BME280;4926;42.670;23.316;2023-07-13T09:38:03;94667.09;;;36.07;37.54
9774;BME280;4926;42.670;23.316;2023-07-13T09:40:39;94668.38;;;36.15;38.26
9774;BME280;4926;42.670;23.316;2023-07-13T09:43:10;94661.41;;;36.10;37.50
9774;BME280;4926;42.670;23.316;2023-07-13T09:45:41;94655.13;;;36.31;37.28
9774;BME280;4926;42.670;23.316;2023-07-13T09:48:12;94644.69;;;36.48;36.62
9774;BME280;4926;42.670;23.316;2023-07-13T09:50:42;94637.31;;;36.54;36.69
9774;BME280;4926;42.670;23.316;2023-07-13T09:53:14;94633.75;;;36.75;37.31
9774;BME280;4926;42.670;23.316;2023-07-13T09:55:42;94635.19;;;36.58;38.60
9774;BME280;4926;42.670;23.316;2023-07-13T09:58:12;94625.53;;;36.84;37.10
9774;BME280;4926;42.670;23.316;2023-07-13T10:00:53;94622.16;;;36.46;36.41
9774;BME280;4926;42.670;23.316;2023-07-13T10:03:26;94628.41;;;36.59;37.34
9774;BME280;4926;42.670;23.316;2023-07-13T10:05:57;94610.19;;;37.01;36.01
9774;BME280;4926;42.670;23.316;2023-07-13T10:08:28;94608.19;;;36.58;37.00
9774;BME280;4926;42.670;23.316;2023-07-13T10:10:59;94605.63;;;36.64;36.93
9774;BME280;4926;42.670;23.316;2023-07-13T10:13:32;94594.13;;;36.96;36.13
9774;BME280;4926;42.670;23.316;2023-07-13T10:16:04;94596.94;;;37.05;36.31
9774;BME280;4926;42.670;23.316;2023-07-13T10:18:41;94591.16;;;36.69;35.38
9774;BME280;4926;42.670;23.316;2023-07-13T10:21:15;94602.78;;;36.98;34.59
9774;BME280;4926;42.670;23.316;2023-07-13T10:23:49;94571.78;;;37.39;31.58
9774;BME280;4926;42.670;23.316;2023-07-13T10:26:21;94542.88;;;37.76;28.53
9774;BME280;4926;42.670;23.316;2023-07-13T10:28:52;94539.97;;;37.89;28.43
9774;BME280;4926;42.670;23.316;2023-07-13T10:31:22;94525.44;;;38.12;26.38
9774;BME280;4926;42.670;23.316;2023-07-13T10:33:49;94524.53;;;38.24;27.56
9774;BME280;4926;42.670;23.316;2023-07-13T10:36:28;94518.16;;;38.42;27.31
9774;BME280;4926;42.670;23.316;2023-07-13T10:38:58;94512.94;;;38.35;27.41
9774;BME280;4926;42.670;23.316;2023-07-13T10:41:27;94512.28;;;38.40;27.20
9774;BME280;4926;42.670;23.316;2023-07-13T10:43:58;94509.38;;;38.34;26.52
9774;BME280;4926;42.670;23.316;2023-07-13T10:46:28;94502.75;;;38.23;27.34
9774;BME280;4926;42.670;23.316;2023-07-13T10:48:58;94507.38;;;38.35;27.53
9774;BME280;4926;42.670;23.316;2023-07-13T10:51:27;94490.97;;;38.10;26.94
9774;BME280;4926;42.670;23.316;2023-07-13T10:54:20;94488.16;;;38.46;27.48
9774;BME280;4926;42.670;23.316;2023-07-13T10:56:53;94476.34;;;38.69;26.80
9774;BME280;4926;42.670;23.316;2023-07-13T10:59:33;94470.22;;;38.97;26.96
9774;BME280;4926;42.670;23.316;2023-07-13T11:02:10;94474.34;;;39.02;26.68
9774;BME280;4926;42.670;23.316;2023-07-13T11:04:41;94475.41;;;38.72;26.96
9774;BME280;4926;42.670;23.316;2023-07-13T11:07:18;94454.88;;;39.02;26.59
9774;BME280;4926;42.670;23.316;2023-07-13T11:09:53;94466.00;;;39.02;26.31
9774;BME280;4926;42.670;23.316;2023-07-13T11:15:28;94436.34;;;39.23;26.58
9774;BME280;4926;42.670;23.316;2023-07-13T11:18:02;94444.41;;;39.44;26.13
9774;BME280;4926;42.670;23.316;2023-07-13T11:20:39;94441.28;;;39.51;26.52
9774;BME280;4926;42.670;23.316;2023-07-13T11:23:29;94439.81;;;39.41;26.47
9774;BME280;4926;42.670;23.316;2023-07-13T11:25:57;94451.78;;;39.00;26.52
9774;BME280;4926;42.670;23.316;2023-07-13T11:28:29;94432.09;;;38.80;26.61
9774;BME280;4926;42.670;23.316;2023-07-13T11:31:12;94439.09;;;39.08;26.93
9774;BME280;4926;42.670;23.316;2023-07-13T11:33:55;94449.94;;;39.06;27.00
9774;BME280;4926;42.670;23.316;2023-07-13T11:36:24;94439.03;;;39.17;27.03
9774;BME280;4926;42.670;23.316;2023-07-13T11:39:02;94425.03;;;39.26;26.93
9774;BME280;4926;42.670;23.316;2023-07-13T11:41:34;94436.88;;;39.12;27.57
9774;BME280;4926;42.670;23.316;2023-07-13T11:44:07;94427.19;;;39.31;27.27
9774;BME280;4926;42.670;23.316;2023-07-13T11:46:37;94408.91;;;39.30;26.61
9774;BME280;4926;42.670;23.316;2023-07-13T11:49:08;94423.09;;;39.41;26.57
9774;BME280;4926;42.670;23.316;2023-07-13T11:51:36;94421.25;;;39.38;27.30
9774;BME280;4926;42.670;23.316;2023-07-13T11:54:10;94414.25;;;39.81;26.45
9774;BME280;4926;42.670;23.316;2023-07-13T11:56:42;94407.16;;;39.80;26.50
9774;BME280;4926;42.670;23.316;2023-07-13T11:59:12;94403.28;;;39.77;26.97
9774;BME280;4926;42.670;23.316;2023-07-13T12:01:43;94402.91;;;39.84;26.73
9774;BME280;4926;42.670;23.316;2023-07-13T12:04:20;94400.56;;;39.92;26.06
9774;BME280;4926;42.670;23.316;2023-07-13T12:06:55;94389.69;;;39.94;25.75
9774;BME280;4926;42.670;23.316;2023-07-13T12:09:22;94383.63;;;40.25;25.73
9774;BME280;4926;42.670;23.316;2023-07-13T12:11:51;94384.56;;;40.51;25.84
9774;BME280;4926;42.670;23.316;2023-07-13T12:14:20;94373.13;;;40.49;24.93
9774;BME280;4926;42.670;23.316;2023-07-13T12:16:50;94377.19;;;40.19;24.89
9774;BME280;4926;42.670;23.316;2023-07-13T12:19:20;94375.66;;;40.47;25.42
9774;BME280;4926;42.670;23.316;2023-07-13T12:21:48;94378.16;;;40.94;25.73
9774;BME280;4926;42.670;23.316;2023-07-13T12:24:16;94365.09;;;41.05;24.55
9774;BME280;4926;42.670;23.316;2023-07-13T12:26:51;94374.41;;;41.17;24.65
9774;BME280;4926;42.670;23.316;2023-07-13T12:29:19;94368.41;;;41.24;25.11
9774;BME280;4926;42.670;23.316;2023-07-13T12:31:47;94362.66;;;41.53;24.83
9774;BME280;4926;42.670;23.316;2023-07-13T12:34:16;94369.00;;;41.54;24.86
9774;BME280;4926;42.670;23.316;2023-07-13T12:36:48;94360.19;;;41.15;25.55
9774;BME280;4926;42.670;23.316;2023-07-13T12:39:23;94359.06;;;41.27;25.41
9774;BME280;4926;42.670;23.316;2023-07-13T12:42:14;94361.81;;;41.07;25.40
9774;BME280;4926;42.670;23.316;2023-07-13T12:44:45;94359.06;;;41.27;24.66
9774;BME280;4926;42.670;23.316;2023-07-13T12:47:13;94350.63;;;41.07;25.06
9774;BME280;4926;42.670;23.316;2023-07-13T12:49:48;94335.03;;;41.15;25.36
9774;BME280;4926;42.670;23.316;2023-07-13T12:52:22;94356.63;;;41.00;27.00
9774;BME280;4926;42.670;23.316;2023-07-13T12:54:56;94368.19;;;40.73;27.25
9774;BME280;4926;42.670;23.316;2023-07-13T12:57:24;94355.31;;;40.95;26.82
9774;BME280;4926;42.670;23.316;2023-07-13T12:59:53;94369.56;;;40.97;27.27
9774;BME280;4926;42.670;23.316;2023-07-13T13:02:28;94349.19;;;41.32;26.38
9774;BME280;4926;42.670;23.316;2023-07-13T13:04:57;94343.66;;;41.57;26.08
9774;BME280;4926;42.670;23.316;2023-07-13T13:07:25;94351.56;;;41.84;26.57
9774;BME280;4926;42.670;23.316;2023-07-13T13:09:52;94306.06;;;41.58;24.56
9774;BME280;4926;42.670;23.316;2023-07-13T13:12:20;94325.34;;;41.36;26.20
9774;BME280;4926;42.670;23.316;2023-07-13T13:14:50;94343.63;;;40.77;27.33
9774;BME280;4926;42.670;23.316;2023-07-13T13:17:20;94343.97;;;40.84;28.14
9774;BME280;4926;42.670;23.316;2023-07-13T13:19:49;94339.06;;;40.30;28.11
9774;BME280;4926;42.670;23.316;2023-07-13T13:22:18;94335.47;;;40.93;27.51
9774;BME280;4926;42.670;23.316;2023-07-13T13:24:46;94330.88;;;40.90;26.42
9774;BME280;4926;42.670;23.316;2023-07-13T13:27:19;94333.19;;;40.43;26.36
9774;BME280;4926;42.670;23.316;2023-07-13T13:29:50;94328.75;;;40.51;26.04
9774;BME280;4926;42.670;23.316;2023-07-13T13:32:18;94323.03;;;40.60;25.56